sensor_id;sensor_type;location;lat;lon;timestamp;P1;durP1;ratioP1;P2;durP2;ratioP2
16179;SDS011;8196;49.428;10.906;2023-04-23T00:01:50;5.22;;;3.30;;
16179;SDS011;8196;49.428;10.906;2023-04-23T00:04:19;4.20;;;3.33;;
16179;SDS011;8196;49.428;10.906;2023-04-23T00:06:48;4.82;;;3.50;;
16179;SDS011;8196;49.428;10.906;2023-04-23T00:11:43;5.43;;;3.40;;
16179;SDS011;8196;49.428;10.906;2023-04-23T00:14:10;4.25;;;3.22;;
16179;SDS011;8196;49.428;10.906;2023-04-23T00:16:38;4.03;;;2.85;;
16179;SDS011;8196;49.428;10.906;2023-04-23T00:19:05;5.80;;;3.60;;
16179;SDS011;8196;49.428;10.906;2023-04-23T00:21:32;4.82;;;3.60;;
16179;SDS011;8196;49.428;10.906;2023-04-23T00:23:59;4.93;;;3.57;;
16179;SDS011;8196;49.428;10.906;2023-04-23T00:26:25;4.97;;;3.50;;
16179;SDS011;8196;49.428;10.906;2023-04-23T00:28:52;5.10;;;3.67;;
16179;SDS011;8196;49.428;10.906;2023-04-23T00:31:19;5.70;;;4.07;;
16179;SDS011;8196;49.428;10.906;2023-04-23T00:33:47;6.72;;;3.88;;
16179;SDS011;8196;49.428;10.906;2023-04-23T00:36:14;4.85;;;3.70;;
16179;SDS011;8196;49.428;10.906;2023-04-23T00:38:41;4.95;;;3.50;;
16179;SDS011;8196;49.428;10.906;2023-04-23T00:41:07;4.20;;;3.33;;
16179;SDS011;8196;49.428;10.906;2023-04-23T00:43:34;4.80;;;3.80;;
16179;SDS011;8196;49.428;10.906;2023-04-23T00:46:02;4.93;;;3.30;;
16179;SDS011;8196;49.428;10.906;2023-04-23T00:48:28;4.78;;;3.72;;
16179;SDS011;8196;49.428;10.906;2023-04-23T00:50:57;4.95;;;4.03;;
16179;SDS011;8196;49.428;10.906;2023-04-23T00:53:25;6.28;;;3.72;;
16179;SDS011;8196;49.428;10.906;2023-04-23T00:55:52;4.88;;;3.83;;
16179;SDS011;8196;49.428;10.906;2023-04-23T00:58:19;6.63;;;3.80;;
16179;SDS011;8196;49.428;10.906;2023-04-23T01:00:47;4.60;;;3.60;;
16179;SDS011;8196;49.428;10.906;2023-04-23T01:03:16;4.53;;;3.53;;
16179;SDS011;8196;49.428;10.906;2023-04-23T01:05:47;5.88;;;3.30;;
16179;SDS011;8196;49.428;10.906;2023-04-23T01:08:15;4.57;;;3.10;;
16179;SDS011;8196;49.428;10.906;2023-04-23T01:10:43;4.10;;;3.28;;
16179;SDS011;8196;49.428;10.906;2023-04-23T01:13:11;4.57;;;3.63;;
16179;SDS011;8196;49.428;10.906;2023-04-23T01:15:42;5.68;;;3.63;;
16179;SDS011;8196;49.428;10.906;2023-04-23T01:18:10;7.03;;;4.10;;
16179;SDS011;8196;49.428;10.906;2023-04-23T01:20:38;5.85;;;3.70;;
16179;SDS011;8196;49.428;10.906;2023-04-23T01:23:05;3.60;;;3.30;;
16179;SDS011;8196;49.428;10.906;2023-04-23T01:25:32;4.45;;;3.30;;
16179;SDS011;8196;49.428;10.906;2023-04-23T01:27:59;4.30;;;3.20;;
16179;SDS011;8196;49.428;10.906;2023-04-23T01:30:26;4.75;;;3.35;;
16179;SDS011;8196;49.428;10.906;2023-04-23T01:32:53;6.43;;;3.13;;
16179;SDS011;8196;49.428;10.906;2023-04-23T01:35:21;3.85;;;3.30;;
16179;SDS011;8196;49.428;10.906;2023-04-23T01:37:49;4.20;;;3.33;;
16179;SDS011;8196;49.428;10.906;2023-04-23T01:40:18;3.50;;;3.20;;
16179;SDS011;8196;49.428;10.906;2023-04-23T01:42:46;4.28;;;3.15;;
16179;SDS011;8196;49.428;10.906;2023-04-23T01:45:14;3.97;;;3.15;;
16179;SDS011;8196;49.428;10.906;2023-04-23T01:47:42;5.18;;;3.60;;
16179;SDS011;8196;49.428;10.906;2023-04-23T01:50:09;4.77;;;3.73;;
16179;SDS011;8196;49.428;10.906;2023-04-23T01:52:36;4.93;;;3.30;;
16179;SDS011;8196;49.428;10.906;2023-04-23T01:55:03;6.45;;;3.50;;
16179;SDS011;8196;49.428;10.906;2023-04-23T01:57:31;5.30;;;3.60;;
16179;SDS011;8196;49.428;10.906;2023-04-23T02:00:02;4.20;;;3.30;;
16179;SDS011;8196;49.428;10.906;2023-04-23T02:02:34;4.10;;;3.40;;
16179;SDS011;8196;49.428;10.906;2023-04-23T02:05:01;5.95;;;3.92;;
16179;SDS011;8196;49.428;10.906;2023-04-23T02:07:31;4.35;;;3.20;;
16179;SDS011;8196;49.428;10.906;2023-04-23T02:09:58;4.07;;;3.20;;
16179;SDS011;8196;49.428;10.906;2023-04-23T02:12:26;4.90;;;3.37;;
16179;SDS011;8196;49.428;10.906;2023-04-23T02:14:53;4.00;;;3.40;;
16179;SDS011;8196;49.428;10.906;2023-04-23T02:17:20;4.32;;;3.60;;
16179;SDS011;8196;49.428;10.906;2023-04-23T02:19:48;6.95;;;3.60;;
16179;SDS011;8196;49.428;10.906;2023-04-23T02:22:15;4.55;;;3.42;;
16179;SDS011;8196;49.428;10.906;2023-04-23T02:24:43;4.95;;;3.38;;
16179;SDS011;8196;49.428;10.906;2023-04-23T02:27:09;5.75;;;3.45;;
16179;SDS011;8196;49.428;10.906;2023-04-23T02:29:36;4.95;;;3.65;;
16179;SDS011;8196;49.428;10.906;2023-04-23T02:32:03;3.83;;;3.22;;
16179;SDS011;8196;49.428;10.906;2023-04-23T02:34:30;4.73;;;3.47;;
16179;SDS011;8196;49.428;10.906;2023-04-23T02:36:56;4.78;;;3.25;;
16179;SDS011;8196;49.428;10.906;2023-04-23T02:39:23;3.78;;;3.20;;
16179;SDS011;8196;49.428;10.906;2023-04-23T02:41:50;4.22;;;3.50;;
16179;SDS011;8196;49.428;10.906;2023-04-23T02:44:17;4.20;;;3.17;;
16179;SDS011;8196;49.428;10.906;2023-04-23T02:46:44;3.88;;;3.30;;
16179;SDS011;8196;49.428;10.906;2023-04-23T02:49:11;3.67;;;3.08;;
16179;SDS011;8196;49.428;10.906;2023-04-23T02:51:39;4.70;;;3.40;;
16179;SDS011;8196;49.428;10.906;2023-04-23T02:54:06;5.30;;;3.47;;
16179;SDS011;8196;49.428;10.906;2023-04-23T02:56:33;4.53;;;3.60;;
16179;SDS011;8196;49.428;10.906;2023-04-23T02:59:00;3.92;;;3.47;;
16179;SDS011;8196;49.428;10.906;2023-04-23T03:01:26;6.20;;;3.80;;
16179;SDS011;8196;49.428;10.906;2023-04-23T03:03:53;4.95;;;3.85;;
16179;SDS011;8196;49.428;10.906;2023-04-23T03:06:21;4.45;;;3.97;;
16179;SDS011;8196;49.428;10.906;2023-04-23T03:08:47;6.80;;;3.92;;
16179;SDS011;8196;49.428;10.906;2023-04-23T03:11:14;4.50;;;4.00;;
16179;SDS011;8196;49.428;10.906;2023-04-23T03:13:41;4.55;;;4.00;;
16179;SDS011;8196;49.428;10.906;2023-04-23T03:16:08;5.97;;;4.32;;
16179;SDS011;8196;49.428;10.906;2023-04-23T03:18:34;4.97;;;3.95;;
16179;SDS011;8196;49.428;10.906;2023-04-23T03:21:01;6.45;;;4.30;;
16179;SDS011;8196;49.428;10.906;2023-04-23T03:23:28;5.10;;;3.90;;
16179;SDS011;8196;49.428;10.906;2023-04-23T03:25:55;6.28;;;4.22;;
16179;SDS011;8196;49.428;10.906;2023-04-23T03:28:22;4.80;;;4.15;;
16179;SDS011;8196;49.428;10.906;2023-04-23T03:30:49;5.05;;;4.22;;
16179;SDS011;8196;49.428;10.906;2023-04-23T03:33:16;5.50;;;4.35;;
16179;SDS011;8196;49.428;10.906;2023-04-23T03:35:43;4.53;;;4.00;;
16179;SDS011;8196;49.428;10.906;2023-04-23T03:38:12;5.35;;;4.00;;
16179;SDS011;8196;49.428;10.906;2023-04-23T03:40:39;4.25;;;3.70;;
16179;SDS011;8196;49.428;10.906;2023-04-23T03:43:05;7.32;;;3.78;;
16179;SDS011;8196;49.428;10.906;2023-04-23T03:45:32;5.30;;;4.40;;
16179;SDS011;8196;49.428;10.906;2023-04-23T03:47:59;4.95;;;3.80;;
16179;SDS011;8196;49.428;10.906;2023-04-23T03:50:25;6.07;;;4.38;;
16179;SDS011;8196;49.428;10.906;2023-04-23T03:52:52;5.07;;;4.15;;
16179;SDS011;8196;49.428;10.906;2023-04-23T03:55:19;6.82;;;4.10;;
16179;SDS011;8196;49.428;10.906;2023-04-23T03:57:46;5.13;;;4.07;;
16179;SDS011;8196;49.428;10.906;2023-04-23T04:00:13;5.53;;;3.80;;
16179;SDS011;8196;49.428;10.906;2023-04-23T04:02:39;4.27;;;3.87;;
16179;SDS011;8196;49.428;10.906;2023-04-23T04:05:07;3.97;;;3.58;;
16179;SDS011;8196;49.428;10.906;2023-04-23T04:07:36;4.82;;;3.97;;
16179;SDS011;8196;49.428;10.906;2023-04-23T04:10:04;5.68;;;4.18;;
16179;SDS011;8196;49.428;10.906;2023-04-23T04:12:31;5.78;;;4.20;;
16179;SDS011;8196;49.428;10.906;2023-04-23T04:14:58;6.23;;;3.93;;
16179;SDS011;8196;49.428;10.906;2023-04-23T04:17:25;8.02;;;4.50;;
16179;SDS011;8196;49.428;10.906;2023-04-23T04:19:52;5.32;;;4.13;;
16179;SDS011;8196;49.428;10.906;2023-04-23T04:22:18;5.47;;;4.20;;
16179;SDS011;8196;49.428;10.906;2023-04-23T04:24:45;4.70;;;4.10;;
16179;SDS011;8196;49.428;10.906;2023-04-23T04:27:13;5.28;;;4.35;;
16179;SDS011;8196;49.428;10.906;2023-04-23T04:29:39;4.95;;;4.25;;
16179;SDS011;8196;49.428;10.906;2023-04-23T04:32:07;5.80;;;4.03;;
16179;SDS011;8196;49.428;10.906;2023-04-23T04:34:34;5.50;;;4.30;;
16179;SDS011;8196;49.428;10.906;2023-04-23T04:37:03;4.72;;;4.10;;
16179;SDS011;8196;49.428;10.906;2023-04-23T04:39:30;4.80;;;3.92;;
16179;SDS011;8196;49.428;10.906;2023-04-23T04:41:57;5.43;;;4.22;;
16179;SDS011;8196;49.428;10.906;2023-04-23T04:44:25;4.68;;;3.72;;
16179;SDS011;8196;49.428;10.906;2023-04-23T04:46:51;4.95;;;4.00;;
16179;SDS011;8196;49.428;10.906;2023-04-23T04:49:19;4.70;;;3.80;;
16179;SDS011;8196;49.428;10.906;2023-04-23T04:51:47;4.65;;;3.65;;
16179;SDS011;8196;49.428;10.906;2023-04-23T04:54:14;4.68;;;3.85;;
16179;SDS011;8196;49.428;10.906;2023-04-23T04:56:40;5.50;;;3.20;;
16179;SDS011;8196;49.428;10.906;2023-04-23T04:59:07;4.35;;;3.20;;
16179;SDS011;8196;49.428;10.906;2023-04-23T05:01:34;4.00;;;3.40;;
16179;SDS011;8196;49.428;10.906;2023-04-23T05:04:02;3.97;;;3.03;;
16179;SDS011;8196;49.428;10.906;2023-04-23T05:08:57;3.85;;;3.05;;
16179;SDS011;8196;49.428;10.906;2023-04-23T05:11:24;3.33;;;2.58;;
16179;SDS011;8196;49.428;10.906;2023-04-23T05:13:51;3.60;;;2.90;;
16179;SDS011;8196;49.428;10.906;2023-04-23T05:16:18;2.85;;;2.55;;
16179;SDS011;8196;49.428;10.906;2023-04-23T05:18:44;3.30;;;2.80;;
16179;SDS011;8196;49.428;10.906;2023-04-23T05:21:11;3.65;;;2.30;;
16179;SDS011;8196;49.428;10.906;2023-04-23T05:23:39;3.60;;;2.50;;
16179;SDS011;8196;49.428;10.906;2023-04-23T05:26:06;3.95;;;2.30;;
16179;SDS011;8196;49.428;10.906;2023-04-23T05:28:32;4.80;;;3.00;;
16179;SDS011;8196;49.428;10.906;2023-04-23T05:33:26;4.38;;;2.67;;
16179;SDS011;8196;49.428;10.906;2023-04-23T05:36:04;3.25;;;2.38;;
16179;SDS011;8196;49.428;10.906;2023-04-23T05:38:31;3.92;;;2.90;;
16179;SDS011;8196;49.428;10.906;2023-04-23T05:40:58;3.92;;;3.00;;
16179;SDS011;8196;49.428;10.906;2023-04-23T05:43:25;4.20;;;3.10;;
16179;SDS011;8196;49.428;10.906;2023-04-23T05:45:51;4.72;;;3.10;;
16179;SDS011;8196;49.428;10.906;2023-04-23T05:48:18;3.13;;;2.60;;
16179;SDS011;8196;49.428;10.906;2023-04-23T05:50:45;2.80;;;2.47;;
16179;SDS011;8196;49.428;10.906;2023-04-23T05:53:12;3.10;;;2.80;;
16179;SDS011;8196;49.428;10.906;2023-04-23T05:55:38;3.60;;;3.13;;
16179;SDS011;8196;49.428;10.906;2023-04-23T05:58:05;4.37;;;3.07;;
16179;SDS011;8196;49.428;10.906;2023-04-23T06:00:32;3.92;;;3.25;;
16179;SDS011;8196;49.428;10.906;2023-04-23T06:03:00;3.85;;;2.75;;
16179;SDS011;8196;49.428;10.906;2023-04-23T06:05:27;4.80;;;3.10;;
16179;SDS011;8196;49.428;10.906;2023-04-23T06:07:54;3.80;;;3.40;;
16179;SDS011;8196;49.428;10.906;2023-04-23T06:10:21;4.38;;;3.20;;
16179;SDS011;8196;49.428;10.906;2023-04-23T06:12:48;5.20;;;3.17;;
16179;SDS011;8196;49.428;10.906;2023-04-23T06:15:15;5.22;;;3.30;;
16179;SDS011;8196;49.428;10.906;2023-04-23T06:17:41;4.22;;;3.03;;
16179;SDS011;8196;49.428;10.906;2023-04-23T06:20:08;4.03;;;3.25;;
16179;SDS011;8196;49.428;10.906;2023-04-23T06:22:37;3.80;;;3.20;;
16179;SDS011;8196;49.428;10.906;2023-04-23T06:25:04;3.30;;;3.00;;
16179;SDS011;8196;49.428;10.906;2023-04-23T06:27:31;4.05;;;3.50;;
16179;SDS011;8196;49.428;10.906;2023-04-23T06:29:58;3.95;;;3.15;;
16179;SDS011;8196;49.428;10.906;2023-04-23T06:32:25;3.80;;;3.15;;
16179;SDS011;8196;49.428;10.906;2023-04-23T06:34:52;3.10;;;2.80;;
16179;SDS011;8196;49.428;10.906;2023-04-23T06:37:27;3.90;;;3.40;;
16179;SDS011;8196;49.428;10.906;2023-04-23T06:39:55;4.30;;;3.15;;
16179;SDS011;8196;49.428;10.906;2023-04-23T06:42:23;3.70;;;3.00;;
16179;SDS011;8196;49.428;10.906;2023-04-23T06:44:50;4.15;;;3.10;;
16179;SDS011;8196;49.428;10.906;2023-04-23T06:47:18;4.35;;;2.88;;
16179;SDS011;8196;49.428;10.906;2023-04-23T06:49:45;3.70;;;2.85;;
16179;SDS011;8196;49.428;10.906;2023-04-23T06:52:11;3.50;;;2.97;;
16179;SDS011;8196;49.428;10.906;2023-04-23T06:54:38;4.18;;;2.80;;
16179;SDS011;8196;49.428;10.906;2023-04-23T06:57:05;3.47;;;3.10;;
16179;SDS011;8196;49.428;10.906;2023-04-23T06:59:32;2.90;;;2.55;;
16179;SDS011;8196;49.428;10.906;2023-04-23T07:01:59;3.72;;;2.80;;
16179;SDS011;8196;49.428;10.906;2023-04-23T07:04:25;3.65;;;2.60;;
16179;SDS011;8196;49.428;10.906;2023-04-23T07:06:52;4.18;;;2.75;;
16179;SDS011;8196;49.428;10.906;2023-04-23T07:09:20;2.65;;;2.45;;
16179;SDS011;8196;49.428;10.906;2023-04-23T07:11:46;2.83;;;2.20;;
16179;SDS011;8196;49.428;10.906;2023-04-23T07:14:13;2.75;;;2.40;;
16179;SDS011;8196;49.428;10.906;2023-04-23T07:16:40;4.22;;;2.28;;
16179;SDS011;8196;49.428;10.906;2023-04-23T07:19:07;3.57;;;2.23;;
16179;SDS011;8196;49.428;10.906;2023-04-23T07:21:33;3.65;;;2.47;;
16179;SDS011;8196;49.428;10.906;2023-04-23T07:24:01;3.60;;;2.05;;
16179;SDS011;8196;49.428;10.906;2023-04-23T07:26:32;2.50;;;2.23;;
16179;SDS011;8196;49.428;10.906;2023-04-23T07:28:59;2.90;;;2.20;;
16179;SDS011;8196;49.428;10.906;2023-04-23T07:31:26;2.40;;;2.10;;
16179;SDS011;8196;49.428;10.906;2023-04-23T07:33:54;2.10;;;1.90;;
16179;SDS011;8196;49.428;10.906;2023-04-23T07:36:21;2.15;;;1.85;;
16179;SDS011;8196;49.428;10.906;2023-04-23T07:38:48;3.28;;;2.38;;
16179;SDS011;8196;49.428;10.906;2023-04-23T07:41:16;3.28;;;2.20;;
16179;SDS011;8196;49.428;10.906;2023-04-23T07:43:43;3.92;;;2.55;;
16179;SDS011;8196;49.428;10.906;2023-04-23T07:46:10;3.58;;;2.60;;
16179;SDS011;8196;49.428;10.906;2023-04-23T07:48:37;3.17;;;2.40;;
16179;SDS011;8196;49.428;10.906;2023-04-23T07:51:04;2.92;;;2.20;;
16179;SDS011;8196;49.428;10.906;2023-04-23T07:53:31;5.40;;;2.50;;
16179;SDS011;8196;49.428;10.906;2023-04-23T07:55:58;4.03;;;2.80;;
16179;SDS011;8196;49.428;10.906;2023-04-23T07:58:26;3.40;;;2.20;;
16179;SDS011;8196;49.428;10.906;2023-04-23T08:00:52;2.37;;;2.17;;
16179;SDS011;8196;49.428;10.906;2023-04-23T08:03:19;2.47;;;1.90;;
16179;SDS011;8196;49.428;10.906;2023-04-23T08:05:47;1.87;;;1.70;;
16179;SDS011;8196;49.428;10.906;2023-04-23T08:08:14;3.25;;;2.20;;
16179;SDS011;8196;49.428;10.906;2023-04-23T08:10:41;4.15;;;2.25;;
16179;SDS011;8196;49.428;10.906;2023-04-23T08:13:07;1.88;;;1.77;;
16179;SDS011;8196;49.428;10.906;2023-04-23T08:15:34;1.55;;;1.45;;
16179;SDS011;8196;49.428;10.906;2023-04-23T08:18:02;1.60;;;1.50;;
16179;SDS011;8196;49.428;10.906;2023-04-23T08:20:29;1.80;;;1.40;;
16179;SDS011;8196;49.428;10.906;2023-04-23T08:22:57;1.73;;;1.40;;
16179;SDS011;8196;49.428;10.906;2023-04-23T08:25:24;1.48;;;1.35;;
16179;SDS011;8196;49.428;10.906;2023-04-23T08:27:51;1.50;;;1.35;;
16179;SDS011;8196;49.428;10.906;2023-04-23T08:30:18;1.25;;;1.15;;
16179;SDS011;8196;49.428;10.906;2023-04-23T08:32:45;1.05;;;1.00;;
16179;SDS011;8196;49.428;10.906;2023-04-23T08:35:16;1.60;;;1.00;;
16179;SDS011;8196;49.428;10.906;2023-04-23T08:37:43;1.98;;;1.02;;
16179;SDS011;8196;49.428;10.906;2023-04-23T08:40:09;1.10;;;0.90;;
16179;SDS011;8196;49.428;10.906;2023-04-23T08:42:37;1.80;;;1.20;;
16179;SDS011;8196;49.428;10.906;2023-04-23T08:45:09;1.65;;;1.10;;
16179;SDS011;8196;49.428;10.906;2023-04-23T08:47:38;1.00;;;0.93;;
16179;SDS011;8196;49.428;10.906;2023-04-23T08:50:10;1.10;;;1.00;;
16179;SDS011;8196;49.428;10.906;2023-04-23T08:52:38;1.13;;;1.08;;
16179;SDS011;8196;49.428;10.906;2023-04-23T08:55:08;1.10;;;1.00;;
16179;SDS011;8196;49.428;10.906;2023-04-23T08:57:36;2.07;;;0.97;;
16179;SDS011;8196;49.428;10.906;2023-04-23T09:00:06;1.20;;;1.10;;
16179;SDS011;8196;49.428;10.906;2023-04-23T09:02:36;1.30;;;1.02;;
16179;SDS011;8196;49.428;10.906;2023-04-23T09:05:05;1.15;;;1.05;;
16179;SDS011;8196;49.428;10.906;2023-04-23T09:07:33;2.17;;;1.15;;
16179;SDS011;8196;49.428;10.906;2023-04-23T09:10:01;1.95;;;1.30;;
16179;SDS011;8196;49.428;10.906;2023-04-23T09:12:29;1.20;;;1.10;;
16179;SDS011;8196;49.428;10.906;2023-04-23T09:14:55;1.85;;;1.30;;
16179;SDS011;8196;49.428;10.906;2023-04-23T09:17:22;1.10;;;1.00;;
16179;SDS011;8196;49.428;10.906;2023-04-23T09:19:54;1.95;;;1.30;;
16179;SDS011;8196;49.428;10.906;2023-04-23T09:22:37;1.77;;;1.33;;
16179;SDS011;8196;49.428;10.906;2023-04-23T09:25:04;1.23;;;1.10;;
16179;SDS011;8196;49.428;10.906;2023-04-23T09:27:32;1.90;;;1.40;;
16179;SDS011;8196;49.428;10.906;2023-04-23T09:29:59;1.40;;;1.30;;
16179;SDS011;8196;49.428;10.906;2023-04-23T09:32:30;1.40;;;1.20;;
16179;SDS011;8196;49.428;10.906;2023-04-23T09:34:58;1.30;;;1.20;;
16179;SDS011;8196;49.428;10.906;2023-04-23T09:37:28;1.20;;;1.10;;
16179;SDS011;8196;49.428;10.906;2023-04-23T09:39:57;1.50;;;0.93;;
16179;SDS011;8196;49.428;10.906;2023-04-23T09:42:26;1.30;;;1.13;;
16179;SDS011;8196;49.428;10.906;2023-04-23T09:44:55;1.30;;;1.20;;
16179;SDS011;8196;49.428;10.906;2023-04-23T09:47:24;2.10;;;1.15;;
16179;SDS011;8196;49.428;10.906;2023-04-23T09:49:51;1.30;;;1.20;;
16179;SDS011;8196;49.428;10.906;2023-04-23T09:52:18;1.02;;;0.98;;
16179;SDS011;8196;49.428;10.906;2023-04-23T09:54:46;1.30;;;1.20;;
16179;SDS011;8196;49.428;10.906;2023-04-23T09:57:12;1.60;;;1.10;;
16179;SDS011;8196;49.428;10.906;2023-04-23T09:59:39;2.00;;;1.20;;
16179;SDS011;8196;49.428;10.906;2023-04-23T10:02:16;1.83;;;1.00;;
16179;SDS011;8196;49.428;10.906;2023-04-23T10:04:44;1.30;;;1.15;;
16179;SDS011;8196;49.428;10.906;2023-04-23T10:07:17;2.10;;;1.40;;
16179;SDS011;8196;49.428;10.906;2023-04-23T10:09:46;1.27;;;1.17;;
16179;SDS011;8196;49.428;10.906;2023-04-23T10:12:13;1.77;;;1.10;;
16179;SDS011;8196;49.428;10.906;2023-04-23T10:14:43;1.52;;;1.27;;
16179;SDS011;8196;49.428;10.906;2023-04-23T10:17:11;2.05;;;1.60;;
16179;SDS011;8196;49.428;10.906;2023-04-23T10:19:42;1.70;;;1.40;;
16179;SDS011;8196;49.428;10.906;2023-04-23T10:22:10;2.40;;;1.40;;
16179;SDS011;8196;49.428;10.906;2023-04-23T10:24:42;1.30;;;1.20;;
16179;SDS011;8196;49.428;10.906;2023-04-23T10:27:14;3.00;;;1.40;;
16179;SDS011;8196;49.428;10.906;2023-04-23T10:30:02;1.60;;;1.50;;
16179;SDS011;8196;49.428;10.906;2023-04-23T10:32:33;1.63;;;1.40;;
16179;SDS011;8196;49.428;10.906;2023-04-23T10:35:00;1.60;;;1.40;;
16179;SDS011;8196;49.428;10.906;2023-04-23T10:37:27;1.40;;;1.30;;
16179;SDS011;8196;49.428;10.906;2023-04-23T10:39:55;1.40;;;1.30;;
16179;SDS011;8196;49.428;10.906;2023-04-23T10:42:29;1.97;;;1.30;;
16179;SDS011;8196;49.428;10.906;2023-04-23T10:44:56;1.15;;;1.05;;
16179;SDS011;8196;49.428;10.906;2023-04-23T10:47:35;2.00;;;1.30;;
16179;SDS011;8196;49.428;10.906;2023-04-23T10:52:48;1.30;;;1.20;;
16179;SDS011;8196;49.428;10.906;2023-04-23T10:55:29;2.10;;;1.42;;
16179;SDS011;8196;49.428;10.906;2023-04-23T11:00:29;3.60;;;1.30;;
16179;SDS011;8196;49.428;10.906;2023-04-23T11:06:13;1.55;;;1.35;;
16179;SDS011;8196;49.428;10.906;2023-04-23T11:11:56;1.48;;;1.38;;
16179;SDS011;8196;49.428;10.906;2023-04-23T11:17:12;1.30;;;1.20;;
16179;SDS011;8196;49.428;10.906;2023-04-23T11:19:40;1.93;;;1.40;;
16179;SDS011;8196;49.428;10.906;2023-04-23T11:22:12;1.63;;;1.23;;
16179;SDS011;8196;49.428;10.906;2023-04-23T11:24:40;1.40;;;1.30;;
16179;SDS011;8196;49.428;10.906;2023-04-23T11:29:37;1.48;;;1.20;;
16179;SDS011;8196;49.428;10.906;2023-04-23T11:32:06;1.80;;;1.30;;
16179;SDS011;8196;49.428;10.906;2023-04-23T11:34:36;1.40;;;1.10;;
16179;SDS011;8196;49.428;10.906;2023-04-23T11:37:05;1.10;;;1.00;;
16179;SDS011;8196;49.428;10.906;2023-04-23T11:39:35;2.10;;;1.00;;
16179;SDS011;8196;49.428;10.906;2023-04-23T11:42:03;1.30;;;1.10;;
16179;SDS011;8196;49.428;10.906;2023-04-23T11:44:31;1.02;;;0.82;;
16179;SDS011;8196;49.428;10.906;2023-04-23T11:46:59;1.50;;;0.90;;
16179;SDS011;8196;49.428;10.906;2023-04-23T11:49:27;0.90;;;0.90;;
16179;SDS011;8196;49.428;10.906;2023-04-23T11:51:54;1.83;;;1.20;;
16179;SDS011;8196;49.428;10.906;2023-04-23T11:54:24;1.75;;;1.10;;
16179;SDS011;8196;49.428;10.906;2023-04-23T11:56:53;1.77;;;1.27;;
16179;SDS011;8196;49.428;10.906;2023-04-23T11:59:20;1.90;;;1.30;;
16179;SDS011;8196;49.428;10.906;2023-04-23T12:01:48;1.98;;;1.27;;
16179;SDS011;8196;49.428;10.906;2023-04-23T12:04:18;1.35;;;1.10;;
16179;SDS011;8196;49.428;10.906;2023-04-23T12:06:47;1.30;;;1.20;;
16179;SDS011;8196;49.428;10.906;2023-04-23T12:09:15;2.05;;;1.20;;
16179;SDS011;8196;49.428;10.906;2023-04-23T12:11:44;2.05;;;1.33;;
16179;SDS011;8196;49.428;10.906;2023-04-23T12:14:11;1.10;;;1.10;;
16179;SDS011;8196;49.428;10.906;2023-04-23T12:16:40;1.25;;;1.15;;
16179;SDS011;8196;49.428;10.906;2023-04-23T12:19:09;1.10;;;1.00;;
16179;SDS011;8196;49.428;10.906;2023-04-23T12:24:14;2.40;;;1.90;;
16179;SDS011;8196;49.428;10.906;2023-04-23T12:26:41;1.90;;;1.20;;
16179;SDS011;8196;49.428;10.906;2023-04-23T12:29:11;1.80;;;1.42;;
16179;SDS011;8196;49.428;10.906;2023-04-23T12:31:38;1.00;;;1.00;;
16179;SDS011;8196;49.428;10.906;2023-04-23T12:34:08;2.78;;;1.00;;
16179;SDS011;8196;49.428;10.906;2023-04-23T12:36:36;1.30;;;1.03;;
16179;SDS011;8196;49.428;10.906;2023-04-23T12:41:56;1.35;;;1.02;;
16179;SDS011;8196;49.428;10.906;2023-04-23T12:44:27;0.90;;;0.90;;
16179;SDS011;8196;49.428;10.906;2023-04-23T12:46:56;1.02;;;0.82;;
16179;SDS011;8196;49.428;10.906;2023-04-23T12:49:25;0.88;;;0.70;;
16179;SDS011;8196;49.428;10.906;2023-04-23T12:51:53;3.28;;;0.80;;
16179;SDS011;8196;49.428;10.906;2023-04-23T12:54:23;0.80;;;0.80;;
16179;SDS011;8196;49.428;10.906;2023-04-23T12:56:51;0.77;;;0.77;;
16179;SDS011;8196;49.428;10.906;2023-04-23T12:59:18;1.02;;;0.80;;
16179;SDS011;8196;49.428;10.906;2023-04-23T13:01:45;0.73;;;0.73;;
16179;SDS011;8196;49.428;10.906;2023-04-23T13:04:12;0.80;;;0.80;;
16179;SDS011;8196;49.428;10.906;2023-04-23T13:06:40;0.90;;;0.70;;
16179;SDS011;8196;49.428;10.906;2023-04-23T13:09:08;1.70;;;1.00;;
16179;SDS011;8196;49.428;10.906;2023-04-23T13:11:36;1.48;;;0.90;;
16179;SDS011;8196;49.428;10.906;2023-04-23T13:14:04;0.77;;;0.77;;
16179;SDS011;8196;49.428;10.906;2023-04-23T13:16:31;0.75;;;0.73;;
16179;SDS011;8196;49.428;10.906;2023-04-23T13:18:58;1.02;;;0.95;;
16179;SDS011;8196;49.428;10.906;2023-04-23T13:21:26;1.10;;;0.80;;
16179;SDS011;8196;49.428;10.906;2023-04-23T13:23:53;0.70;;;0.70;;
16179;SDS011;8196;49.428;10.906;2023-04-23T13:26:19;1.55;;;0.73;;
16179;SDS011;8196;49.428;10.906;2023-04-23T13:28:46;0.70;;;0.70;;
16179;SDS011;8196;49.428;10.906;2023-04-23T13:31:13;0.90;;;0.90;;
16179;SDS011;8196;49.428;10.906;2023-04-23T13:33:40;0.80;;;0.80;;
16179;SDS011;8196;49.428;10.906;2023-04-23T13:36:07;0.98;;;0.88;;
16179;SDS011;8196;49.428;10.906;2023-04-23T13:38:34;0.90;;;0.80;;
16179;SDS011;8196;49.428;10.906;2023-04-23T13:41:01;0.80;;;0.80;;
16179;SDS011;8196;49.428;10.906;2023-04-23T13:43:28;0.90;;;0.90;;
16179;SDS011;8196;49.428;10.906;2023-04-23T13:45:55;1.13;;;1.00;;
16179;SDS011;8196;49.428;10.906;2023-04-23T13:48:21;1.13;;;0.90;;
16179;SDS011;8196;49.428;10.906;2023-04-23T13:50:54;1.50;;;0.95;;
16179;SDS011;8196;49.428;10.906;2023-04-23T13:53:21;1.88;;;1.02;;
16179;SDS011;8196;49.428;10.906;2023-04-23T13:55:48;1.05;;;0.90;;
16179;SDS011;8196;49.428;10.906;2023-04-23T13:58:18;1.15;;;0.90;;
16179;SDS011;8196;49.428;10.906;2023-04-23T14:00:44;0.90;;;0.90;;
16179;SDS011;8196;49.428;10.906;2023-04-23T14:03:11;1.08;;;0.90;;
16179;SDS011;8196;49.428;10.906;2023-04-23T14:05:38;1.00;;;0.90;;
16179;SDS011;8196;49.428;10.906;2023-04-23T14:08:05;1.67;;;1.20;;
16179;SDS011;8196;49.428;10.906;2023-04-23T14:10:33;0.80;;;0.80;;
16179;SDS011;8196;49.428;10.906;2023-04-23T14:13:01;1.40;;;1.00;;
16179;SDS011;8196;49.428;10.906;2023-04-23T14:15:29;1.00;;;0.90;;
16179;SDS011;8196;49.428;10.906;2023-04-23T14:17:56;1.45;;;1.00;;
16179;SDS011;8196;49.428;10.906;2023-04-23T14:20:24;1.50;;;1.00;;
16179;SDS011;8196;49.428;10.906;2023-04-23T14:22:55;0.80;;;0.80;;
16179;SDS011;8196;49.428;10.906;2023-04-23T14:25:34;1.20;;;0.90;;
16179;SDS011;8196;49.428;10.906;2023-04-23T14:30:54;1.45;;;1.00;;
16179;SDS011;8196;49.428;10.906;2023-04-23T14:33:22;1.42;;;1.00;;
16179;SDS011;8196;49.428;10.906;2023-04-23T14:35:49;0.98;;;0.93;;
16179;SDS011;8196;49.428;10.906;2023-04-23T14:38:16;1.10;;;0.95;;
16179;SDS011;8196;49.428;10.906;2023-04-23T14:40:43;0.82;;;0.82;;
16179;SDS011;8196;49.428;10.906;2023-04-23T14:43:10;1.23;;;0.90;;
16179;SDS011;8196;49.428;10.906;2023-04-23T14:45:41;1.58;;;0.80;;
16179;SDS011;8196;49.428;10.906;2023-04-23T14:48:08;1.90;;;1.02;;
16179;SDS011;8196;49.428;10.906;2023-04-23T14:50:40;1.20;;;1.00;;
16179;SDS011;8196;49.428;10.906;2023-04-23T14:53:13;1.60;;;1.08;;
16179;SDS011;8196;49.428;10.906;2023-04-23T14:55:40;1.10;;;1.00;;
16179;SDS011;8196;49.428;10.906;2023-04-23T14:58:08;1.20;;;1.10;;
16179;SDS011;8196;49.428;10.906;2023-04-23T15:00:35;1.20;;;0.88;;
16179;SDS011;8196;49.428;10.906;2023-04-23T15:03:01;1.00;;;0.90;;
16179;SDS011;8196;49.428;10.906;2023-04-23T15:05:35;1.45;;;1.00;;
16179;SDS011;8196;49.428;10.906;2023-04-23T15:08:02;1.60;;;0.80;;
16179;SDS011;8196;49.428;10.906;2023-04-23T15:10:29;0.90;;;0.80;;
16179;SDS011;8196;49.428;10.906;2023-04-23T15:15:54;0.88;;;0.82;;
16179;SDS011;8196;49.428;10.906;2023-04-23T15:18:25;1.90;;;0.98;;
16179;SDS011;8196;49.428;10.906;2023-04-23T15:20:52;8.18;;;6.65;;
16179;SDS011;8196;49.428;10.906;2023-04-23T15:23:18;1.15;;;1.00;;
16179;SDS011;8196;49.428;10.906;2023-04-23T15:25:47;1.00;;;0.90;;
16179;SDS011;8196;49.428;10.906;2023-04-23T15:28:14;1.33;;;1.23;;